createdAt,value
2023-04-25T00:04:07.351Z,99290.22
2023-04-25T00:09:11.942Z,99303.13
2023-04-25T00:14:14.776Z,99283.50
2023-04-25T00:19:17.282Z,99306.72
2023-04-25T00:24:20.507Z,99306.72
2023-04-25T00:29:23.020Z,99294.91
2023-04-25T00:34:25.671Z,99318.19
2023-04-25T00:39:28.450Z,99320.00
2023-04-25T00:44:33.264Z,99320.28
2023-04-25T00:49:36.115Z,99324.06
2023-04-25T00:54:39.187Z,99322.50
2023-04-25T00:59:47.214Z,99324.16
2023-04-25T01:04:50.454Z,99331.16
2023-04-25T01:09:53.598Z,99326.75
2023-04-25T01:14:56.576Z,99323.28
2023-04-25T01:19:59.370Z,99296.50
2023-04-25T01:25:02.886Z,99310.00
2023-04-25T01:30:07.757Z,99300.31
2023-04-25T01:35:12.553Z,99301.09
2023-04-25T01:40:15.992Z,99304.50
2023-04-25T01:45:19.216Z,99303.72
2023-04-25T01:50:22.085Z,99295.28
2023-04-25T01:55:25.764Z,99307.31
2023-04-25T02:00:39.094Z,99305.50
2023-04-25T02:05:42.081Z,99287.34
2023-04-25T02:10:48.207Z,99281.00
2023-04-25T02:15:54.491Z,99285.22
2023-04-25T02:20:57.464Z,99292.78
2023-04-25T02:26:00.657Z,99290.69
2023-04-25T02:31:03.925Z,99281.81
2023-04-25T02:36:07.241Z,99271.06
2023-04-25T02:41:10.022Z,99268.00
2023-04-25T02:46:13.091Z,99278.00
2023-04-25T02:51:17.753Z,99260.78
2023-04-25T02:56:20.959Z,99278.75
2023-04-25T03:01:25.324Z,99274.16
2023-04-25T03:06:29.002Z,99292.44
2023-04-25T03:11:31.924Z,99286.47
2023-04-25T03:16:35.533Z,99284.56
2023-04-25T03:21:38.567Z,99277.41
2023-04-25T03:26:41.241Z,99245.44
2023-04-25T03:31:45.096Z,99278.94
2023-04-25T03:36:48.775Z,99282.44
2023-04-25T03:41:55.292Z,99268.28
2023-04-25T03:46:57.997Z,99268.31
2023-04-25T03:52:01.468Z,99268.19
2023-04-25T03:57:09.273Z,99265.69
2023-04-25T04:02:14.812Z,99242.19
2023-04-25T04:07:18.026Z,99260.41
2023-04-25T04:12:23.491Z,99248.97
2023-04-25T04:17:27.325Z,99259.03
2023-04-25T04:22:30.631Z,99262.63
2023-04-25T04:27:36.712Z,99253.31
2023-04-25T04:32:53.748Z,99255.59
2023-04-25T04:37:57.801Z,99241.06
2023-04-25T04:43:04.021Z,99240.13
2023-04-25T04:48:07.473Z,99235.03
2023-04-25T04:53:24.529Z,99233.88
2023-04-25T04:58:59.457Z,99238.53
2023-04-25T05:04:23.915Z,99238.50
2023-04-25T05:09:56.108Z,99233.50
2023-04-25T05:15:17.602Z,99243.00
2023-04-25T05:20:43.234Z,99243.28
2023-04-25T05:26:15.039Z,99230.41
2023-04-25T05:31:38.060Z,99243.66
2023-04-25T05:36:49.520Z,99224.53
2023-04-25T05:41:52.349Z,99237.44
2023-04-25T05:47:15.278Z,99234.16
2023-04-25T05:52:31.837Z,99231.75
2023-04-25T05:57:47.384Z,99219.97
2023-04-25T06:02:50.984Z,99224.22
2023-04-25T06:07:54.776Z,99224.81
2023-04-25T06:12:58.428Z,99211.09
2023-04-25T06:18:01.897Z,99215.50
2023-04-25T06:23:04.685Z,99193.63
2023-04-25T06:28:23.142Z,99197.97
2023-04-25T06:33:26.054Z,99192.94
2023-04-25T06:38:30.510Z,99161.44
2023-04-25T06:43:34.615Z,99193.75
2023-04-25T06:48:56.213Z,99181.31
2023-04-25T06:53:59.228Z,99184.09
2023-04-25T06:59:13.112Z,99180.66
2023-04-25T07:04:17.296Z,99186.56
2023-04-25T07:09:27.494Z,99178.59
2023-04-25T07:14:31.465Z,99177.47
2023-04-25T07:19:38.989Z,99163.31
2023-04-25T07:24:42.707Z,99182.25
2023-04-25T07:29:49.370Z,99173.56
2023-04-25T07:34:52.242Z,99173.25
2023-04-25T07:39:55.450Z,99168.06
2023-04-25T07:44:58.567Z,99161.72
2023-04-25T07:50:01.576Z,99161.25
2023-04-25T07:55:06.449Z,99167.28
2023-04-25T08:00:19.454Z,99170.19
2023-04-25T08:05:29.232Z,99165.75
2023-04-25T08:10:38.395Z,99167.69
2023-04-25T08:15:41.583Z,99152.34
2023-04-25T08:20:44.771Z,99132.97
2023-04-25T08:25:49.100Z,99151.25
2023-04-25T08:30:54.904Z,99149.34
2023-04-25T08:35:58.942Z,99153.63
2023-04-25T08:41:03.550Z,99155.69
2023-04-25T08:46:07.104Z,99160.03
2023-04-25T08:51:26.947Z,99155.53
2023-04-25T08:56:31.056Z,99137.31
2023-04-25T09:01:34.832Z,99139.63
2023-04-25T09:06:37.881Z,99119.19
2023-04-25T09:11:41.864Z,99105.81
2023-04-25T09:16:56.447Z,99121.72
2023-04-25T09:22:27.997Z,99123.66
2023-04-25T09:27:30.707Z,99123.00
2023-04-25T09:32:44.372Z,99121.56
2023-04-25T09:37:47.569Z,99091.41
2023-04-25T09:43:26.496Z,99110.63
2023-04-25T09:48:30.733Z,99112.69
2023-04-25T09:53:41.104Z,99111.16
2023-04-25T09:58:59.341Z,99109.69
2023-04-25T10:04:08.006Z,99102.97
2023-04-25T10:09:28.809Z,99094.69
2023-04-25T10:14:32.315Z,99076.03
2023-04-25T10:19:35.110Z,99063.63
2023-04-25T10:24:39.605Z,99074.66
2023-04-25T10:29:44.404Z,99074.81
2023-04-25T10:34:49.570Z,99054.16
2023-04-25T10:39:54.334Z,99055.53
2023-04-25T10:45:06.624Z,99050.13
2023-04-25T10:50:10.587Z,99048.59
2023-04-25T10:55:13.709Z,99050.50
2023-04-25T11:00:25.674Z,99036.16
2023-04-25T11:05:30.607Z,99032.38
2023-04-25T11:10:36.823Z,99011.69
2023-04-25T11:15:39.701Z,99014.97
2023-04-25T11:20:44.445Z,99017.88
2023-04-25T11:25:48.129Z,99003.66
2023-04-25T11:30:53.502Z,98925.94
2023-04-25T11:35:57.526Z,98989.13
2023-04-25T11:41:01.019Z,98949.66
2023-04-25T11:46:09.466Z,98970.28
2023-04-25T11:51:23.110Z,98974.38
2023-04-25T11:56:25.768Z,98962.22
2023-04-25T12:01:36.454Z,98952.63
2023-04-25T12:06:41.521Z,98961.59
2023-04-25T12:12:07.265Z,98954.84
2023-04-25T12:17:10.890Z,98948.88
2023-04-25T12:22:25.910Z,98930.22
2023-04-25T12:27:29.782Z,98923.69
2023-04-25T12:32:33.250Z,98907.22
2023-04-25T12:37:36.489Z,98906.59
2023-04-25T12:42:39.196Z,98896.56
2023-04-25T12:47:42.753Z,98900.06
2023-04-25T12:52:45.825Z,98893.09
2023-04-25T12:57:49.130Z,98882.38
2023-04-25T13:02:52.553Z,98884.78
2023-04-25T13:07:55.930Z,98869.72
2023-04-25T13:12:59.089Z,98863.91
2023-04-25T13:18:06.844Z,98857.47
2023-04-25T13:23:12.310Z,98860.00
2023-04-25T13:28:18.911Z,98860.50
2023-04-25T13:33:22.073Z,98843.44
2023-04-25T13:38:25.542Z,98854.88
2023-04-25T13:43:28.623Z,98834.00
2023-04-25T13:48:35.245Z,98830.94
2023-04-25T13:53:38.451Z,98833.75
2023-04-25T13:58:41.829Z,98818.38
2023-04-25T14:03:45.679Z,98810.38
2023-04-25T14:08:49.040Z,98805.88
2023-04-25T14:13:52.961Z,98803.84
2023-04-25T14:18:55.951Z,98778.91
2023-04-25T14:23:59.104Z,98793.66
2023-04-25T14:29:02.184Z,98792.75
2023-04-25T14:34:04.826Z,98779.94
2023-04-25T14:39:10.160Z,98777.72
2023-04-25T14:44:13.291Z,98766.38
2023-04-25T14:49:16.388Z,98757.75
2023-04-25T14:54:19.618Z,98740.78
2023-04-25T14:59:22.694Z,98735.91
2023-04-25T15:04:25.390Z,98726.91
2023-04-25T15:09:29.751Z,98712.03
2023-04-25T15:14:34.924Z,98708.81
2023-04-25T15:19:38.283Z,98697.19
2023-04-25T15:24:41.338Z,98661.03
2023-04-25T15:29:44.837Z,98687.06
2023-04-25T15:34:48.088Z,98674.88
2023-04-25T15:40:07.470Z,98639.56
2023-04-25T15:45:18.061Z,98667.22
2023-04-25T15:50:22.303Z,98643.78
2023-04-25T15:55:27.099Z,98656.88
2023-04-25T16:00:29.980Z,98632.72
2023-04-25T16:05:32.815Z,98645.81
2023-04-25T16:10:38.956Z,98643.81
2023-04-25T16:15:45.133Z,98642.50
2023-04-25T16:20:53.337Z,98640.97
2023-04-25T16:26:02.932Z,98639.16
2023-04-25T16:31:15.174Z,98627.84
2023-04-25T16:36:19.843Z,98605.94
2023-04-25T16:41:22.355Z,98634.75
2023-04-25T16:46:32.986Z,98633.72
2023-04-25T16:51:46.700Z,98636.59
2023-04-25T16:57:01.485Z,98631.34
2023-04-25T17:02:04.558Z,98628.25
2023-04-25T17:07:15.933Z,98619.84
2023-04-25T17:12:29.432Z,98602.19
2023-04-25T17:17:35.294Z,98630.72
2023-04-25T17:22:38.997Z,98617.38
2023-04-25T17:27:42.448Z,98603.44
2023-04-25T17:32:46.587Z,98612.28
2023-04-25T17:37:53.101Z,98611.53
2023-04-25T17:43:09.297Z,98586.50
2023-04-25T17:48:34.223Z,98593.28
2023-04-25T17:53:39.608Z,98560.84
2023-04-25T17:58:42.381Z,98620.88
2023-04-25T18:03:47.091Z,98624.31
2023-04-25T18:08:50.687Z,98621.16
2023-04-25T18:13:56.908Z,98632.69
2023-04-25T18:19:11.857Z,98636.47
2023-04-25T18:24:20.800Z,98622.75
2023-04-25T18:29:33.199Z,98630.97
2023-04-25T18:34:37.820Z,98623.97
2023-04-25T18:39:41.312Z,98623.75
2023-04-25T18:44:44.242Z,98611.00
2023-04-25T18:49:48.019Z,98612.06
2023-04-25T18:54:51.382Z,98554.38
2023-04-25T18:59:54.295Z,98609.59
2023-04-25T19:04:57.533Z,98600.72
2023-04-25T19:10:02.891Z,98602.59
2023-04-25T19:15:07.239Z,98596.25
2023-04-25T19:20:11.154Z,98590.50
2023-04-25T19:25:14.282Z,98587.41
2023-04-25T19:30:17.550Z,98580.09
2023-04-25T19:35:20.607Z,98580.31
2023-04-25T19:40:23.644Z,98564.66
2023-04-25T19:45:26.978Z,98562.47
2023-04-25T19:50:29.778Z,98559.03
2023-04-25T19:55:36.692Z,98556.13
2023-04-25T20:00:40.178Z,98554.38
2023-04-25T20:05:42.809Z,98540.91
2023-04-25T20:10:52.114Z,98532.13
2023-04-25T20:15:55.634Z,98532.53
2023-04-25T20:20:58.716Z,98521.09
2023-04-25T20:26:01.817Z,98505.84
2023-04-25T20:31:05.480Z,98503.31
2023-04-25T20:36:09.174Z,98495.75
2023-04-25T20:41:12.913Z,98461.13
2023-04-25T20:46:17.381Z,98467.81
2023-04-25T20:51:22.178Z,98476.31
2023-04-25T20:56:28.966Z,98474.84
2023-04-25T21:01:32.571Z,98465.53
2023-04-25T21:06:36.617Z,98457.22
2023-04-25T21:11:40.081Z,98448.38
2023-04-25T21:16:43.354Z,98442.66
2023-04-25T21:21:47.484Z,98440.13
2023-04-25T21:26:51.492Z,98438.78
2023-04-25T21:31:55.651Z,98428.44
2023-04-25T21:36:58.619Z,98421.34
2023-04-25T21:42:02.270Z,98404.09
2023-04-25T21:47:06.241Z,98410.06
2023-04-25T21:52:09.866Z,98394.81
2023-04-25T21:57:12.437Z,98392.50
2023-04-25T22:02:15.249Z,98362.78
2023-04-25T22:07:18.192Z,98371.09
2023-04-25T22:12:20.794Z,98384.22
2023-04-25T22:17:27.070Z,98366.72
2023-04-25T22:22:29.705Z,98375.16
2023-04-25T22:27:32.531Z,98374.22
2023-04-25T22:32:36.554Z,98339.56
2023-04-25T22:37:40.839Z,98375.28
2023-04-25T22:42:44.384Z,98338.41
2023-04-25T22:47:47.450Z,98359.16
2023-04-25T22:52:50.100Z,98352.25
2023-04-25T22:57:53.290Z,98332.66
2023-04-25T23:02:56.166Z,98343.53
2023-04-25T23:07:59.180Z,98331.19
2023-04-25T23:13:01.786Z,98330.09
2023-04-25T23:18:04.645Z,98335.34
2023-04-25T23:23:07.612Z,98325.56
2023-04-25T23:28:10.157Z,98324.88
2023-04-25T23:33:12.922Z,98315.91
2023-04-25T23:38:16.475Z,98312.56
2023-04-25T23:43:19.240Z,98302.91
2023-04-25T23:48:21.813Z,98283.25
2023-04-25T23:53:24.400Z,98292.22
2023-04-25T23:58:26.982Z,98287.97
